createdAt,value
2022-09-15T00:00:54.321Z,22.60
2022-09-15T00:01:54.341Z,20.80
2022-09-15T00:02:54.360Z,25.20
2022-09-15T00:03:54.308Z,23.30
2022-09-15T00:04:54.307Z,25.40
2022-09-15T00:05:54.296Z,24.10
2022-09-15T00:06:54.270Z,24.60
2022-09-15T00:07:54.255Z,22.00
2022-09-15T00:08:54.236Z,24.40
2022-09-15T00:09:54.245Z,24.50
2022-09-15T00:10:54.226Z,27.40
2022-09-15T00:11:54.233Z,23.40
2022-09-15T00:12:54.204Z,28.00
2022-09-15T00:13:54.187Z,20.40
2022-09-15T00:14:54.170Z,24.80
2022-09-15T00:15:54.196Z,26.60
2022-09-15T00:16:54.251Z,23.40
2022-09-15T00:17:54.158Z,23.50
2022-09-15T00:18:54.144Z,29.10
2022-09-15T00:19:54.131Z,26.40
2022-09-15T00:20:54.123Z,24.50
2022-09-15T00:21:54.133Z,23.40
2022-09-15T00:22:54.107Z,27.30
2022-09-15T00:23:54.089Z,24.80
2022-09-15T00:24:54.065Z,22.80
2022-09-15T00:25:54.071Z,27.00
2022-09-15T00:26:54.073Z,25.60
2022-09-15T00:27:54.037Z,27.30
2022-09-15T00:28:54.034Z,23.60
2022-09-15T00:29:54.025Z,21.70
2022-09-15T00:30:54.070Z,27.90
2022-09-15T00:31:53.989Z,26.10
2022-09-15T00:32:53.980Z,22.80
2022-09-15T00:33:53.976Z,24.70
2022-09-15T00:34:53.959Z,22.90
2022-09-15T00:35:53.964Z,25.30
2022-09-15T00:36:53.947Z,21.90
2022-09-15T00:37:53.940Z,32.70
2022-09-15T00:38:53.980Z,25.70
2022-09-15T00:39:53.983Z,22.70
2022-09-15T00:40:53.916Z,25.40
2022-09-15T00:41:53.875Z,29.00
2022-09-15T00:42:53.869Z,28.40
2022-09-15T00:43:53.867Z,23.50
2022-09-15T00:44:53.850Z,24.60
2022-09-15T00:46:01.497Z,25.10
2022-09-15T00:47:15.267Z,26.60
2022-09-15T00:47:54.820Z,25.80
2022-09-15T00:48:53.806Z,24.70
2022-09-15T00:49:57.064Z,23.70
2022-09-15T00:50:54.791Z,21.90
2022-09-15T00:51:53.767Z,22.50
2022-09-15T00:52:53.790Z,24.70
2022-09-15T00:53:53.801Z,26.30
2022-09-15T00:54:53.750Z,25.30
2022-09-15T00:55:53.724Z,23.30
2022-09-15T00:56:53.722Z,24.90
2022-09-15T00:57:53.717Z,21.80
2022-09-15T00:58:53.694Z,23.80
2022-09-15T00:59:53.693Z,25.80
2022-09-15T01:00:53.714Z,23.40
2022-09-15T01:01:53.744Z,25.10
2022-09-15T01:02:53.650Z,23.10
2022-09-15T01:03:53.639Z,28.10
2022-09-15T01:04:58.009Z,23.00
2022-09-15T01:05:53.613Z,22.90
2022-09-15T01:06:53.612Z,26.90
2022-09-15T01:07:53.608Z,29.10
2022-09-15T01:08:53.605Z,26.10
2022-09-15T01:09:53.589Z,24.20
2022-09-15T01:10:53.570Z,27.10
2022-09-15T01:11:53.546Z,25.20
2022-09-15T01:12:53.554Z,31.60
2022-09-15T01:13:53.524Z,25.80
2022-09-15T01:14:53.522Z,22.90
2022-09-15T01:15:53.503Z,27.00
2022-09-15T01:16:53.565Z,26.70
2022-09-15T01:17:53.499Z,28.80
2022-09-15T01:18:53.493Z,30.20
2022-09-15T01:19:53.463Z,26.70
2022-09-15T01:20:53.482Z,34.70
2022-09-15T01:21:58.101Z,28.30
2022-09-15T01:22:54.431Z,31.30
2022-09-15T01:23:53.429Z,29.90
2022-09-15T01:24:53.413Z,26.20
2022-09-15T01:25:53.418Z,30.60
2022-09-15T01:26:53.391Z,30.70
2022-09-15T01:27:53.377Z,30.50
2022-09-15T01:28:53.452Z,28.80
2022-09-15T01:29:53.368Z,33.00
2022-09-15T01:30:53.348Z,28.50
2022-09-15T01:31:53.383Z,31.90
2022-09-15T01:32:53.332Z,35.80
2022-09-15T01:33:53.331Z,38.40
2022-09-15T01:34:53.302Z,31.60
2022-09-15T01:35:53.315Z,32.40
2022-09-15T01:36:53.290Z,31.70
2022-09-15T01:37:53.264Z,32.20
2022-09-15T01:38:53.262Z,39.70
2022-09-15T01:39:53.336Z,34.90
2022-09-15T01:40:53.263Z,33.70
2022-09-15T01:41:53.239Z,37.10
2022-09-15T01:42:53.223Z,36.50
2022-09-15T01:43:53.214Z,35.10
2022-09-15T01:44:53.199Z,34.70
2022-09-15T01:45:53.253Z,36.90
2022-09-15T01:46:53.213Z,32.40
2022-09-15T01:47:53.172Z,36.80
2022-09-15T01:48:53.150Z,35.30
2022-09-15T01:49:53.136Z,35.80
2022-09-15T01:50:53.131Z,35.10
2022-09-15T01:51:53.128Z,32.30
2022-09-15T01:52:53.106Z,34.50
2022-09-15T01:53:53.090Z,33.40
2022-09-15T01:54:53.086Z,34.90
2022-09-15T01:55:53.069Z,43.00
2022-09-15T01:56:53.096Z,35.10
2022-09-15T01:57:53.080Z,35.50
2022-09-15T01:58:53.104Z,38.00
2022-09-15T01:59:53.044Z,48.60
2022-09-15T02:00:53.079Z,34.20
2022-09-15T02:01:53.073Z,30.90
2022-09-15T02:02:53.023Z,30.90
2022-09-15T02:03:52.985Z,32.80
2022-09-15T02:04:52.974Z,34.00
2022-09-15T02:05:52.987Z,30.90
2022-09-15T02:06:52.974Z,33.20
2022-09-15T02:07:52.939Z,31.40
2022-09-15T02:08:52.983Z,32.20
2022-09-15T02:09:52.916Z,35.80
2022-09-15T02:10:52.911Z,35.40
2022-09-15T02:11:52.902Z,28.20
2022-09-15T02:12:52.899Z,32.40
2022-09-15T02:13:52.944Z,36.50
2022-09-15T02:14:52.866Z,30.80
2022-09-15T02:15:52.851Z,32.10
2022-09-15T02:16:52.904Z,31.20
2022-09-15T02:17:52.826Z,34.30
2022-09-15T02:18:52.823Z,31.20
2022-09-15T02:19:52.805Z,31.20
2022-09-15T02:20:52.799Z,30.10
2022-09-15T02:21:52.805Z,35.90
2022-09-15T02:22:52.788Z,34.40
2022-09-15T02:23:52.860Z,29.00
2022-09-15T02:24:52.754Z,33.20
2022-09-15T02:25:52.750Z,29.40
2022-09-15T02:26:53.653Z,31.00
2022-09-15T02:27:52.720Z,31.50
2022-09-15T02:28:52.788Z,40.10
2022-09-15T02:29:52.714Z,35.80
2022-09-15T02:30:52.713Z,31.60
2022-09-15T02:31:52.796Z,41.50
2022-09-15T02:32:52.667Z,34.00
2022-09-15T02:33:52.672Z,29.80
2022-09-15T02:34:52.660Z,33.40
2022-09-15T02:35:52.632Z,36.50
2022-09-15T02:36:52.638Z,37.90
2022-09-15T02:37:52.613Z,36.50
2022-09-15T02:38:52.662Z,32.50
2022-09-15T02:39:52.637Z,30.70
2022-09-15T02:40:52.599Z,32.30
2022-09-15T02:41:52.563Z,32.50
2022-09-15T02:42:52.557Z,46.50
2022-09-15T02:43:52.609Z,53.90
2022-09-15T02:44:52.551Z,59.90
2022-09-15T02:45:52.615Z,60.60
2022-09-15T02:47:00.027Z,36.60
2022-09-15T02:47:52.512Z,39.40
2022-09-15T02:48:52.488Z,51.80
2022-09-15T02:49:52.472Z,70.80
2022-09-15T02:50:52.467Z,61.20
2022-09-15T02:51:52.476Z,68.40
2022-09-15T02:52:52.445Z,74.10
2022-09-15T02:53:52.436Z,145.50
2022-09-15T02:54:52.446Z,111.60
2022-09-15T02:55:52.412Z,129.80
2022-09-15T02:56:52.413Z,202.20
2022-09-15T02:57:52.388Z,193.60
2022-09-15T02:58:52.428Z,147.80
2022-09-15T02:59:52.380Z,187.40
2022-09-15T03:00:52.394Z,183.40
2022-09-15T03:01:52.429Z,185.60
2022-09-15T03:02:52.349Z,117.60
2022-09-15T03:03:52.317Z,215.00
2022-09-15T03:04:52.313Z,125.70
2022-09-15T03:05:52.307Z,143.20
2022-09-15T03:06:52.290Z,243.20
2022-09-15T03:07:52.278Z,148.60
2022-09-15T03:08:52.365Z,168.40
2022-09-15T03:09:52.253Z,146.20
2022-09-15T03:10:52.258Z,147.50
2022-09-15T03:11:52.274Z,155.10
2022-09-15T03:12:52.237Z,91.10
2022-09-15T03:13:52.267Z,152.80
2022-09-15T03:14:52.200Z,108.20
2022-09-15T03:15:52.251Z,152.00
2022-09-15T03:16:52.199Z,77.90
2022-09-15T03:17:52.180Z,90.20
2022-09-15T03:18:52.187Z,116.70
2022-09-15T03:19:52.152Z,103.50
2022-09-15T03:20:52.147Z,109.90
2022-09-15T03:21:52.125Z,140.60
2022-09-15T03:22:52.132Z,110.90
2022-09-15T03:23:52.255Z,95.30
2022-09-15T03:24:52.116Z,114.40
2022-09-15T03:25:52.108Z,155.20
2022-09-15T03:26:52.096Z,111.90
2022-09-15T03:27:52.056Z,96.80
2022-09-15T03:28:52.074Z,141.90
2022-09-15T03:29:52.037Z,131.50
2022-09-15T03:30:52.042Z,123.90
2022-09-15T03:31:52.063Z,93.30
2022-09-15T03:32:52.013Z,107.70
2022-09-15T03:33:52.008Z,99.90
2022-09-15T03:34:56.398Z,61.60
2022-09-15T03:35:52.967Z,69.90
2022-09-15T03:36:51.972Z,86.70
2022-09-15T03:37:51.976Z,116.90
2022-09-15T03:38:52.014Z,109.70
2022-09-15T03:39:52.004Z,108.90
2022-09-15T03:40:51.924Z,109.70
2022-09-15T03:41:51.900Z,87.70
2022-09-15T03:42:51.907Z,97.20
2022-09-15T03:43:51.889Z,67.50
2022-09-15T03:44:51.888Z,80.80
2022-09-15T03:45:51.942Z,64.60
2022-09-15T03:46:51.852Z,76.40
2022-09-15T03:47:51.844Z,71.20
2022-09-15T03:48:51.853Z,95.40
2022-09-15T03:49:51.833Z,72.40
2022-09-15T03:50:51.810Z,79.10
2022-09-15T03:51:51.791Z,67.30
2022-09-15T03:52:54.548Z,68.10
2022-09-15T03:53:53.019Z,75.00
2022-09-15T03:54:51.779Z,59.70
2022-09-15T03:55:51.767Z,64.10
2022-09-15T03:56:51.778Z,66.10
2022-09-15T03:57:51.726Z,59.40
2022-09-15T03:58:51.732Z,57.20
2022-09-15T03:59:51.731Z,58.40
2022-09-15T04:00:51.745Z,49.40
2022-09-15T04:01:51.762Z,53.90
2022-09-15T04:02:51.688Z,48.60
2022-09-15T04:03:51.731Z,51.30
2022-09-15T04:04:51.655Z,53.00
2022-09-15T04:05:51.660Z,52.60
2022-09-15T04:06:51.631Z,50.00
2022-09-15T04:07:51.629Z,49.70
2022-09-15T04:08:51.723Z,55.50
2022-09-15T04:09:51.620Z,49.40
2022-09-15T04:10:51.588Z,44.90
2022-09-15T04:11:51.579Z,44.50
2022-09-15T04:12:51.568Z,41.50
2022-09-15T04:13:51.563Z,45.70
2022-09-15T04:14:51.547Z,43.40
2022-09-15T04:15:51.561Z,43.80
2022-09-15T04:16:51.522Z,45.10
2022-09-15T04:17:51.508Z,42.10
2022-09-15T04:18:51.511Z,39.00
2022-09-15T04:19:51.505Z,49.40
2022-09-15T04:20:51.487Z,41.60
2022-09-15T04:21:51.495Z,42.30
2022-09-15T04:22:51.457Z,41.20
2022-09-15T04:23:51.616Z,44.50
2022-09-15T04:24:51.437Z,41.20
2022-09-15T04:25:51.420Z,39.90
2022-09-15T04:26:51.414Z,40.80
2022-09-15T04:27:51.418Z,41.00
2022-09-15T04:28:51.405Z,38.10
2022-09-15T04:29:51.378Z,37.30
2022-09-15T04:30:51.372Z,41.10
2022-09-15T04:31:51.457Z,39.00
2022-09-15T04:32:51.354Z,39.10
2022-09-15T04:33:51.350Z,38.80
2022-09-15T04:34:51.344Z,33.70
2022-09-15T04:35:51.315Z,34.70
2022-09-15T04:36:51.300Z,36.50
2022-09-15T04:37:51.325Z,43.20
2022-09-15T04:38:51.383Z,38.40
2022-09-15T04:39:51.316Z,36.10
2022-09-15T04:40:51.267Z,36.50
2022-09-15T04:41:51.255Z,35.90
2022-09-15T04:42:51.236Z,32.20
2022-09-15T04:43:51.266Z,30.70
2022-09-15T04:44:51.218Z,33.50
2022-09-15T04:45:51.247Z,31.50
2022-09-15T04:46:51.296Z,33.70
2022-09-15T04:47:58.270Z,31.80
2022-09-15T04:48:51.215Z,32.20
2022-09-15T04:49:51.165Z,30.90
2022-09-15T04:50:51.163Z,31.40
2022-09-15T04:51:51.152Z,29.20
2022-09-15T04:52:51.125Z,34.10
2022-09-15T04:53:51.301Z,28.30
2022-09-15T04:54:51.104Z,29.80
2022-09-15T04:55:51.108Z,31.50
2022-09-15T04:56:51.081Z,31.80
2022-09-15T04:57:51.077Z,31.70
2022-09-15T04:58:51.071Z,27.30
2022-09-15T04:59:51.064Z,31.40
2022-09-15T05:00:51.104Z,34.70
2022-09-15T05:01:51.091Z,29.30
2022-09-15T05:02:51.027Z,33.30
2022-09-15T05:03:51.011Z,30.80
2022-09-15T05:04:51.004Z,30.00
2022-09-15T05:05:50.994Z,29.00
2022-09-15T05:06:50.987Z,31.10
2022-09-15T05:07:50.965Z,30.60
2022-09-15T05:08:51.160Z,31.60
2022-09-15T05:09:50.964Z,27.90
2022-09-15T05:10:50.953Z,29.30
2022-09-15T05:11:50.923Z,27.60
2022-09-15T05:12:50.923Z,29.30
2022-09-15T05:13:50.906Z,26.00
2022-09-15T05:14:50.905Z,29.00
2022-09-15T05:15:50.947Z,25.50
2022-09-15T05:16:50.876Z,27.80
2022-09-15T05:17:50.878Z,25.60
2022-09-15T05:18:50.841Z,27.90
2022-09-15T05:19:50.838Z,26.30
2022-09-15T05:20:50.833Z,23.80
2022-09-15T05:21:50.829Z,24.50
2022-09-15T05:22:50.799Z,27.20
2022-09-15T05:23:50.821Z,26.90
2022-09-15T05:24:51.724Z,24.20
2022-09-15T05:25:50.810Z,26.80
2022-09-15T05:26:50.767Z,25.20
2022-09-15T05:27:50.764Z,27.70
2022-09-15T05:28:50.731Z,23.50
2022-09-15T05:30:00.339Z,24.80
2022-09-15T05:30:51.711Z,24.30
2022-09-15T05:31:50.806Z,23.70
2022-09-15T05:32:50.687Z,24.60
2022-09-15T05:33:50.713Z,25.30
2022-09-15T05:34:50.667Z,23.80
2022-09-15T05:35:50.659Z,24.40
2022-09-15T05:36:50.648Z,24.40
2022-09-15T05:37:50.650Z,24.60
2022-09-15T05:38:50.798Z,23.00
2022-09-15T05:39:50.678Z,23.70
2022-09-15T05:40:50.638Z,23.30
2022-09-15T05:41:50.802Z,23.70
2022-09-15T05:42:50.637Z,24.00
2022-09-15T05:43:50.592Z,23.60
2022-09-15T05:44:50.556Z,25.30
2022-09-15T05:45:50.550Z,23.80
2022-09-15T05:46:50.597Z,23.80
2022-09-15T05:47:50.599Z,23.00
2022-09-15T05:48:50.527Z,23.20
2022-09-15T05:49:50.625Z,22.80
2022-09-15T05:50:50.494Z,23.10
2022-09-15T05:51:50.888Z,22.60
2022-09-15T05:52:50.480Z,21.30
2022-09-15T05:53:50.590Z,23.40
2022-09-15T05:54:50.448Z,21.60
2022-09-15T05:55:50.463Z,25.20
2022-09-15T05:56:50.429Z,20.10
2022-09-15T05:57:50.466Z,21.40
2022-09-15T05:58:50.449Z,19.40
2022-09-15T05:59:50.401Z,23.80
2022-09-15T06:00:50.432Z,19.30
2022-09-15T06:01:50.465Z,21.20
2022-09-15T06:02:50.477Z,18.00
2022-09-15T06:03:50.359Z,20.10
2022-09-15T06:04:50.339Z,19.00
2022-09-15T06:05:50.347Z,19.00
2022-09-15T06:06:50.342Z,15.90
2022-09-15T06:07:50.311Z,18.30
2022-09-15T06:08:55.411Z,16.70
2022-09-15T06:09:51.303Z,17.00
2022-09-15T06:10:50.289Z,16.70
2022-09-15T06:11:50.318Z,18.70
2022-09-15T06:12:50.251Z,16.70
2022-09-15T06:13:50.361Z,19.10
2022-09-15T06:14:50.241Z,16.70
2022-09-15T06:15:50.267Z,16.60
2022-09-15T06:16:50.246Z,20.00
2022-09-15T06:17:50.530Z,19.20
2022-09-15T06:18:50.467Z,15.40
2022-09-15T06:19:50.194Z,16.30
2022-09-15T06:20:50.379Z,18.40
2022-09-15T06:21:50.364Z,16.50
2022-09-15T06:22:50.149Z,19.50
2022-09-15T06:23:50.975Z,15.20
2022-09-15T06:24:50.148Z,15.40
2022-09-15T06:25:50.116Z,18.40
2022-09-15T06:26:50.115Z,17.40
2022-09-15T06:27:50.094Z,16.10
2022-09-15T06:28:50.138Z,17.80
2022-09-15T06:29:50.109Z,17.30
2022-09-15T06:30:50.058Z,15.30
2022-09-15T06:31:50.146Z,16.40
2022-09-15T06:32:50.059Z,17.10
2022-09-15T06:33:50.038Z,14.90
2022-09-15T06:34:50.032Z,14.00
2022-09-15T06:35:50.019Z,14.50
2022-09-15T06:36:49.991Z,13.90
2022-09-15T06:37:49.984Z,16.70
2022-09-15T06:38:49.985Z,13.90
2022-09-15T06:39:50.098Z,13.60
2022-09-15T06:40:49.952Z,14.60
2022-09-15T06:42:02.298Z,15.20
2022-09-15T06:42:50.926Z,14.10
2022-09-15T22:45:54.039Z,4.30
2022-09-15T22:46:53.914Z,2.10
2022-09-15T22:47:53.887Z,4.40
2022-09-15T22:48:53.881Z,2.40
2022-09-15T22:49:53.883Z,1.90
2022-09-15T22:50:53.856Z,1.50
2022-09-15T22:51:53.842Z,1.50
2022-09-15T22:52:53.848Z,2.00
2022-09-15T22:53:53.971Z,2.00
2022-09-15T22:54:53.826Z,2.00
2022-09-15T22:55:53.796Z,2.70
2022-09-15T22:56:53.791Z,2.40
2022-09-15T22:57:53.779Z,2.70
2022-09-15T22:58:53.778Z,2.70
2022-09-15T22:59:53.764Z,2.20
2022-09-15T23:00:53.813Z,1.30
2022-09-15T23:01:53.778Z,3.70
2022-09-15T23:02:53.724Z,2.50
2022-09-15T23:03:53.729Z,4.80
2022-09-15T23:04:53.704Z,2.80
2022-09-15T23:05:53.691Z,2.50
2022-09-15T23:06:53.685Z,2.20
2022-09-15T23:07:53.685Z,2.50
2022-09-15T23:08:53.831Z,2.30
2022-09-15T23:09:54.375Z,4.50
2022-09-15T23:10:53.646Z,2.90
2022-09-15T23:11:53.622Z,3.10
2022-09-15T23:12:53.614Z,1.90
2022-09-15T23:13:53.612Z,3.60
2022-09-15T23:14:53.611Z,3.60
2022-09-15T23:15:53.631Z,4.20
2022-09-15T23:16:53.580Z,3.30
2022-09-15T23:17:53.575Z,2.70
2022-09-15T23:18:53.565Z,2.20
2022-09-15T23:19:53.540Z,1.90
2022-09-15T23:20:53.536Z,1.70
2022-09-15T23:21:53.505Z,3.60
2022-09-15T23:22:53.503Z,2.00
2022-09-15T23:23:53.650Z,1.70
2022-09-15T23:24:53.492Z,3.70
2022-09-15T23:25:53.462Z,2.00
2022-09-15T23:26:53.486Z,1.90
2022-09-15T23:27:53.446Z,2.50
2022-09-15T23:28:53.430Z,3.80
2022-09-15T23:29:53.414Z,3.40
2022-09-15T23:30:53.408Z,2.00
2022-09-15T23:31:53.478Z,2.70
2022-09-15T23:32:53.400Z,3.90
2022-09-15T23:33:53.412Z,1.70
2022-09-15T23:34:53.364Z,3.50
2022-09-15T23:35:53.349Z,2.90
2022-09-15T23:36:53.342Z,2.20
2022-09-15T23:37:53.336Z,3.40
2022-09-15T23:38:53.472Z,2.50
2022-09-15T23:39:53.347Z,3.50
2022-09-15T23:40:53.299Z,4.70
2022-09-15T23:41:53.282Z,2.70
2022-09-15T23:42:53.297Z,3.20
2022-09-15T23:43:53.263Z,3.50
2022-09-15T23:44:53.263Z,1.20
2022-09-15T23:45:53.261Z,3.30
2022-09-15T23:46:53.334Z,4.10
2022-09-15T23:47:53.217Z,2.70
2022-09-15T23:48:53.232Z,3.00
2022-09-15T23:49:53.237Z,3.10
2022-09-15T23:50:53.183Z,1.90
2022-09-15T23:51:53.195Z,3.40
2022-09-15T23:52:53.158Z,2.40
2022-09-15T23:53:53.245Z,3.90
2022-09-15T23:54:53.150Z,2.50
2022-09-15T23:55:53.138Z,3.40
2022-09-15T23:56:53.138Z,2.70
2022-09-15T23:57:53.107Z,2.10
2022-09-15T23:58:53.109Z,1.80
2022-09-15T23:59:53.099Z,4.10
